Главная страница
METAR-TAF:

METAR-TAF

Аэропорты :

Grant County Airport

Петербург, Западная Виргиния, США

широта: 38-59N, долгота: 079-08W, высота над уровнем моря: 293 м

Текущие метеонаблюдения

Эта сводка был подготовлена 9 минут назад, в 23:15 UTC
Ветер 3 Узел от восточно-юго-восточный
Температура 4°C
Влажность 100%
Давление 1014 hPa
Видимость: 16.1 км
Отдельные облака на высоте 1100 фута
Рассеянная облачность на высоте 3200 фута
Сплошная облачность на высоте 3900 фута

METAR: KW99 162315Z AUTO 12003KT 10SM SCT011 BKN032 OVC039 04/04 A2993 RMK AO2 T00430040

Время: 18:24 (23:24 UTC)


TAF: отсутствует

Метеонаблюдения и прогнозы для более 4000 аэропортов (сводки METAR и TAF).

Имеющиеся станции представлены на карте желтыми и красными точками.

Чтобы увидеть название станции, наведите на нее мышь.

Затем щелкните, чтобы увидеть метеонаблюдения и метеопрогнозы.

Управление картой: чтобы увеличить масштаб, щелкните зеленые кнопки с черным крестиком; чтобы уменьшить масштаб, щелкните зеленую кнопку с тире; для просмотра соседних карт щелкайте зеленые стрелки.


METAR-TAF: